Time;durP1;ratioP1;P1;durP2;ratioP2;P2;SDS_P1;SDS_P2;PMS_P1;PMS_P2;Temp;Humidity;BMP_temperature;BMP_pressure;BME280_temperature;BME280_humidity;BME280_pressure;Samples;Min_cycle;Max_cycle;Signal;HPM_P1;HPM_P2
2023/11/24 00:00:35;;;;;;;10.77;8.60;;;;;;;-145.63;55.28;39028.16;4944983;29;20028;-70
2023/11/24 00:03:01;;;;;;;14.32;8.65;;;;;;;-145.63;54.92;39037.94;4951401;29;20053;-69
2023/11/24 00:05:27;;;;;;;10.55;7.32;;;;;;;-145.63;55.03;39030.13;4961228;28;20308;-69
2023/11/24 00:07:52;;;;;;;13.32;9.25;;;;;;;-145.63;55.45;39035.97;4941609;29;20039;-69
2023/11/24 00:10:18;;;;;;;11.65;8.40;;;;;;;-145.63;55.14;39039.88;4945099;29;20485;-69
2023/11/24 00:12:44;;;;;;;10.90;8.70;;;;;;;-145.63;54.57;39045.75;4944992;29;20094;-69
2023/11/24 00:15:10;;;;;;;12.90;9.07;;;;;;;-145.63;55.38;39059.44;4944693;29;20328;-69
2023/11/24 00:17:38;;;;;;;12.27;8.45;;;;;;;-145.63;55.49;39004.69;4944695;29;20098;-68
2023/11/24 00:20:12;;;;;;;11.27;9.02;;;;;;;-145.63;54.38;39004.69;4975704;28;20024;-67
2023/11/24 00:22:39;;;;;;;12.98;9.13;;;;;;;-145.63;55.05;39024.25;4924724;29;20252;-68
2023/11/24 00:25:06;;;;;;;11.95;9.40;;;;;;;-145.63;54.84;39004.69;4940311;29;20075;-67
2023/11/24 00:27:32;;;;;;;13.15;9.02;;;;;;;-145.63;54.92;39032.06;4937430;29;20027;-67
2023/11/24 00:29:58;;;;;;;12.70;8.85;;;;;;;-145.63;54.84;39043.81;4944768;29;20027;-67
2023/11/24 00:32:24;;;;;;;11.52;9.27;;;;;;;-145.63;54.47;39032.06;4942358;29;20126;-68
2023/11/24 00:34:50;;;;;;;11.13;9.10;;;;;;;-145.63;54.24;39012.50;4944695;29;20208;-68
2023/11/24 00:37:17;;;;;;;12.40;9.05;;;;;;;-145.63;53.99;39028.16;4947136;29;20023;-68
2023/11/24 00:39:44;;;;;;;12.82;9.98;;;;;;;-145.63;54.83;39016.44;4947850;29;20303;-68
2023/11/24 00:42:10;;;;;;;11.70;8.65;;;;;;;-145.63;55.01;39012.50;4955400;29;20027;-68
2023/11/24 00:44:36;;;;;;;13.90;9.55;;;;;;;-145.63;54.79;38944.06;4963505;29;20058;-68
2023/11/24 00:47:02;;;;;;;13.88;9.38;;;;;;;-145.63;54.19;39035.97;4935155;29;20028;-69
2023/11/24 00:49:27;;;;;;;11.82;9.70;;;;;;;-145.63;53.99;39069.22;4956673;29;20375;-68
2023/11/24 00:51:54;;;;;;;13.07;9.80;;;;;;;-145.63;55.82;39004.69;4953778;29;20027;-70
2023/11/24 00:54:19;;;;;;;10.70;9.10;;;;;;;-145.63;55.60;39028.16;4947935;29;20028;-69
2023/11/24 00:56:46;;;;;;;12.43;10.50;;;;;;;-145.63;54.91;39014.47;4948014;29;20031;-68
2023/11/24 00:59:12;;;;;;;13.90;9.98;;;;;;;-145.63;55.88;39028.16;4947754;29;20062;-68
2023/11/24 01:01:38;;;;;;;12.60;9.43;;;;;;;-145.63;55.01;39051.63;4942596;29;20031;-68
2023/11/24 01:04:04;;;;;;;13.27;9.43;;;;;;;-145.63;54.81;39008.59;4941501;29;20334;-67
2023/11/24 01:06:30;;;;;;;14.63;9.68;;;;;;;-145.63;55.93;39016.44;4954505;29;20303;-67
2023/11/24 01:08:55;;;;;;;13.85;10.25;;;;;;;-145.63;55.39;39014.47;4962753;28;20083;-67
2023/11/24 01:11:21;;;;;;;13.98;10.10;;;;;;;-145.63;55.82;39016.44;4951215;29;20188;-67
2023/11/24 01:13:47;;;;;;;14.70;9.43;;;;;;;-145.63;55.35;38856.06;4947417;29;20024;-68
2023/11/24 01:16:14;;;;;;;14.68;10.02;;;;;;;-145.63;55.13;39082.91;4947463;29;20059;-68
2023/11/24 01:18:41;;;;;;;15.27;10.68;;;;;;;-145.63;54.68;39106.38;4955657;29;20019;-68
2023/11/24 01:21:07;;;;;;;14.82;9.93;;;;;;;-145.63;55.29;39006.66;4962893;29;20120;-69
2023/11/24 01:23:33;;;;;;;11.52;10.10;;;;;;;-145.63;55.19;39012.50;4946920;28;20039;-69
2023/11/24 01:25:59;;;;;;;13.80;11.15;;;;;;;-145.63;55.59;39039.88;4942321;29;20023;-67
2023/11/24 01:28:25;;;;;;;13.57;11.18;;;;;;;-145.63;55.11;39035.97;4941983;29;20039;-67
2023/11/24 01:30:51;;;;;;;12.80;10.27;;;;;;;-145.63;55.05;39008.59;4947181;29;20054;-67
2023/11/24 01:33:17;;;;;;;13.95;10.45;;;;;;;-145.63;54.93;39057.50;4946332;29;20027;-67
2023/11/24 01:35:43;;;;;;;12.07;10.35;;;;;;;-145.63;55.06;39059.44;4947636;29;20098;-67
2023/11/24 01:38:09;;;;;;;13.30;11.50;;;;;;;-145.63;54.34;39034.03;4966332;28;20027;-67
2023/11/24 01:40:37;;;;;;;13.48;10.88;;;;;;;-145.63;55.45;39039.88;4951347;28;20261;-67
2023/11/24 01:43:03;;;;;;;15.85;11.55;;;;;;;-145.63;55.13;39026.19;4947107;29;20131;-67
2023/11/24 01:45:30;;;;;;;15.93;11.65;;;;;;;-145.63;55.25;39039.88;4946198;29;20031;-67
2023/11/24 01:47:56;;;;;;;12.40;11.10;;;;;;;-145.63;55.14;39022.28;4946755;29;20191;-69
2023/11/24 01:50:22;;;;;;;13.77;11.35;;;;;;;-145.63;55.51;39041.84;4964095;29;20034;-67
2023/11/24 01:52:49;;;;;;;15.02;11.73;;;;;;;-145.63;54.09;39122.03;4947084;29;20401;-67
2023/11/24 01:55:16;;;;;;;13.02;11.45;;;;;;;-145.63;54.42;39055.53;4947017;29;20099;-67
2023/11/24 01:57:42;;;;;;;14.20;11.95;;;;;;;-145.63;54.21;39051.63;4946884;29;20024;-68
2023/11/24 02:00:18;;;;;;;13.77;11.70;;;;;;;-145.63;54.71;39069.22;4946647;29;20027;-67
2023/11/24 02:02:44;;;;;;;15.00;11.70;;;;;;;-145.63;55.03;39065.31;4946795;29;20122;-67
2023/11/24 02:05:12;;;;;;;14.07;11.30;;;;;;;-145.63;55.07;39045.75;4946644;29;20034;-67
2023/11/24 02:07:39;;;;;;;13.95;11.57;;;;;;;-145.63;55.51;39065.31;4946207;29;20023;-67
2023/11/24 02:10:06;;;;;;;15.82;11.52;;;;;;;-145.63;54.53;39034.03;4946465;29;20196;-69
2023/11/24 02:12:33;;;;;;;15.48;11.13;;;;;;;-145.63;54.51;39035.97;4935841;29;20038;-69
2023/11/24 02:15:00;;;;;;;14.18;11.88;;;;;;;-145.63;55.22;39010.56;4942363;29;20032;-69
2023/11/24 02:17:26;;;;;;;14.13;12.00;;;;;;;-145.63;54.73;39037.94;4946510;29;20036;-69
2023/11/24 02:19:52;;;;;;;14.23;11.98;;;;;;;-145.63;54.76;39014.47;4946059;29;20051;-69
2023/11/24 02:22:18;;;;;;;13.50;10.98;;;;;;;-145.63;55.47;39041.84;4946176;29;20095;-69
2023/11/24 02:24:43;;;;;;;13.50;12.02;;;;;;;-145.63;54.75;39051.63;4946100;29;20339;-67
2023/11/24 02:27:09;;;;;;;14.23;11.45;;;;;;;-145.63;55.66;39022.28;4946451;29;20058;-68
2023/11/24 02:29:35;;;;;;;13.82;11.52;;;;;;;-145.63;55.38;39047.72;4946195;29;20028;-67
2023/11/24 02:32:01;;;;;;;13.38;11.98;;;;;;;-145.63;54.99;39032.06;4945018;29;20058;-68
2023/11/24 02:34:28;;;;;;;15.60;12.35;;;;;;;-145.63;55.81;39055.53;4944658;29;20267;-68
2023/11/24 02:36:54;;;;;;;14.05;12.27;;;;;;;-145.63;55.14;39039.88;4955140;29;20043;-67
2023/11/24 02:39:20;;;;;;;14.30;11.77;;;;;;;-145.63;55.11;39032.06;4960388;29;20342;-69
2023/11/24 02:41:46;;;;;;;15.70;12.77;;;;;;;-145.63;55.55;39020.34;4945401;29;20024;-68
2023/11/24 02:44:12;;;;;;;14.85;11.57;;;;;;;-145.63;55.16;39008.59;4946096;29;20038;-67
2023/11/24 02:46:38;;;;;;;13.38;11.20;;;;;;;-145.63;55.97;39012.50;4945847;29;20033;-67
2023/11/24 02:49:04;;;;;;;16.65;13.00;;;;;;;-145.63;56.40;39028.16;4952421;28;20023;-67
2023/11/24 02:51:30;;;;;;;16.25;12.60;;;;;;;-145.63;56.89;38998.81;4955656;29;20394;-67
2023/11/24 02:53:56;;;;;;;15.05;13.45;;;;;;;-145.63;56.99;39049.66;4944308;29;20024;-67
2023/11/24 02:56:22;;;;;;;15.55;12.60;;;;;;;-145.63;56.62;39014.47;4945761;29;20023;-67
2023/11/24 02:58:48;;;;;;;14.73;13.20;;;;;;;-145.63;56.46;39035.97;4945469;29;20028;-67
2023/11/24 03:01:14;;;;;;;14.20;12.23;;;;;;;-145.63;56.39;39030.13;4943257;29;20291;-67
2023/11/24 03:03:40;;;;;;;14.15;12.52;;;;;;;-145.63;55.79;39120.06;4933577;29;20051;-67
2023/11/24 03:06:06;;;;;;;14.23;12.52;;;;;;;-145.63;56.05;39393.88;4934164;29;20336;-67
2023/11/24 03:08:33;;;;;;;13.95;11.32;;;;;;;-145.63;56.22;39049.66;4945902;29;20035;-67
2023/11/24 03:11:03;;;;;;;15.88;12.70;;;;;;;-145.63;56.78;39041.84;4945321;29;20292;-67
2023/11/24 03:13:29;;;;;;;14.70;12.75;;;;;;;-145.63;55.82;39041.84;4945576;29;20039;-68
2023/11/24 03:15:54;;;;;;;15.20;13.07;;;;;;;-145.63;55.98;39041.84;4940394;29;20075;-68
2023/11/24 03:18:20;;;;;;;17.33;12.68;;;;;;;-145.63;56.12;39043.81;4944622;29;20028;-68
2023/11/24 03:20:47;;;;;;;14.07;12.57;;;;;;;-145.63;56.28;39035.97;4944735;29;20024;-68
2023/11/24 03:23:13;;;;;;;13.32;11.85;;;;;;;-145.63;56.51;39000.78;4925883;29;20031;-67
2023/11/24 03:25:39;;;;;;;13.40;11.90;;;;;;;-145.63;56.76;39032.06;4940329;29;20051;-67
2023/11/24 03:28:06;;;;;;;16.30;13.25;;;;;;;-145.63;55.72;39024.25;4944630;29;20058;-67
2023/11/24 03:30:32;;;;;;;14.20;12.70;;;;;;;-145.63;55.80;39084.88;4944591;29;20055;-68
2023/11/24 03:32:58;;;;;;;14.15;12.43;;;;;;;-145.63;56.24;39043.81;4944116;29;20110;-68
2023/11/24 03:35:24;;;;;;;15.55;13.02;;;;;;;-145.63;56.70;39088.78;4944759;29;20032;-68
2023/11/24 03:37:50;;;;;;;14.65;12.48;;;;;;;-145.63;56.42;39043.81;4944229;29;20287;-69
2023/11/24 03:40:16;;;;;;;16.30;12.40;;;;;;;-145.63;55.77;39057.50;4945007;29;20367;-67
2023/11/24 03:42:42;;;;;;;16.23;12.68;;;;;;;-145.63;55.42;39061.41;4945323;29;20027;-67
2023/11/24 03:45:09;;;;;;;14.07;12.15;;;;;;;-145.63;56.76;39059.44;4944773;29;20028;-68
2023/11/24 03:47:35;;;;;;;14.23;12.73;;;;;;;-145.63;56.19;39043.81;4940690;29;20020;-67
2023/11/24 03:50:01;;;;;;;17.02;14.07;;;;;;;-145.63;55.95;39051.63;4959099;29;20030;-68
2023/11/24 03:52:27;;;;;;;16.45;14.25;;;;;;;-145.63;55.56;39063.34;4947311;29;20035;-67
2023/11/24 03:54:53;;;;;;;17.38;14.20;;;;;;;-145.63;55.64;39020.34;4944357;29;20071;-67
2023/11/24 03:57:19;;;;;;;18.08;13.38;;;;;;;-145.63;55.93;39037.94;4944816;29;20055;-68
2023/11/24 03:59:45;;;;;;;17.02;15.02;;;;;;;-145.63;56.82;39047.72;4944365;29;20095;-69
2023/11/24 04:02:10;;;;;;;17.80;14.05;;;;;;;-145.63;56.26;38957.75;4963079;28;20039;-67
2023/11/24 04:04:36;;;;;;;18.02;13.13;;;;;;;-145.63;56.39;39069.22;4943660;29;20031;-68
2023/11/24 04:07:02;;;;;;;17.02;13.63;;;;;;;-145.63;55.63;39057.50;4944729;29;20082;-68
2023/11/24 04:09:29;;;;;;;16.00;13.35;;;;;;;-145.63;56.82;39043.81;4944356;29;20095;-68
2023/11/24 04:11:55;;;;;;;18.65;14.35;;;;;;;-145.63;56.34;38920.59;4947060;29;20327;-69
2023/11/24 04:14:21;;;;;;;20.45;13.48;;;;;;;-145.63;57.40;39055.53;4949624;28;20024;-69
2023/11/24 04:16:47;;;;;;;16.50;14.57;;;;;;;-145.63;57.01;39045.75;4960472;29;20025;-69
2023/11/24 04:19:13;;;;;;;17.25;14.52;;;;;;;-145.63;56.51;39024.25;4953360;28;20067;-69
2023/11/24 04:21:40;;;;;;;18.35;15.20;;;;;;;-145.63;57.41;39047.72;4948763;29;20034;-69
2023/11/24 04:24:07;;;;;;;19.67;15.85;;;;;;;-145.63;56.38;39043.81;4948641;29;20090;-69
2023/11/24 04:26:34;;;;;;;17.00;14.48;;;;;;;-145.63;56.47;39039.88;4948864;29;20034;-70
2023/11/24 04:29:00;;;;;;;17.95;15.25;;;;;;;-145.63;56.91;39055.53;4948751;29;20024;-70
2023/11/24 04:31:26;;;;;;;19.52;15.55;;;;;;;-145.63;55.84;39012.50;4948125;29;20118;-69
2023/11/24 04:33:52;;;;;;;18.42;16.38;;;;;;;-145.63;56.38;39055.53;4946685;29;20048;-70
2023/11/24 04:36:18;;;;;;;17.40;15.05;;;;;;;-145.63;56.84;39043.81;4948334;29;20027;-69
2023/11/24 04:38:45;;;;;;;18.92;15.80;;;;;;;-145.63;55.72;39020.34;4948361;29;20031;-69
2023/11/24 04:41:12;;;;;;;22.75;17.45;;;;;;;-145.63;56.79;39043.81;4947867;29;20369;-70
2023/11/24 04:43:38;;;;;;;19.20;16.38;;;;;;;-145.63;56.07;39032.06;4943103;29;20045;-68
2023/11/24 04:46:07;;;;;;;22.58;17.00;;;;;;;-145.63;57.12;39053.59;4947941;29;20024;-68
2023/11/24 04:48:34;;;;;;;20.42;16.67;;;;;;;-145.63;56.49;39010.56;4950991;29;20043;-69
2023/11/24 04:51:00;;;;;;;21.52;16.75;;;;;;;-145.63;56.07;39063.34;4962084;29;20107;-68
2023/11/24 04:53:25;;;;;;;23.50;18.63;;;;;;;-145.63;57.77;39026.19;4947943;29;20031;-68
2023/11/24 04:55:51;;;;;;;22.63;18.60;;;;;;;-145.63;57.33;39067.28;4947558;29;20513;-68
2023/11/24 04:58:17;;;;;;;22.63;19.25;;;;;;;-145.63;56.56;39039.88;4947523;29;20035;-66
2023/11/24 05:00:42;;;;;;;24.90;19.00;;;;;;;-145.63;57.29;39037.94;4942922;29;20028;-67
2023/11/24 05:03:08;;;;;;;24.17;20.25;;;;;;;-145.63;57.65;39053.59;4936289;29;20032;-67
2023/11/24 05:05:34;;;;;;;24.05;19.17;;;;;;;-145.63;56.28;39059.44;4948017;29;20063;-68
2023/11/24 05:07:59;;;;;;;24.75;19.02;;;;;;;-145.63;56.80;39055.53;4947672;29;20043;-67
2023/11/24 05:10:25;;;;;;;23.73;20.27;;;;;;;-145.63;56.93;39041.84;4947333;29;20043;-67
2023/11/24 05:12:51;;;;;;;26.17;21.50;;;;;;;-145.63;57.11;39055.53;4954939;29;20303;-67
2023/11/24 05:15:17;;;;;;;24.92;20.92;;;;;;;-145.63;56.88;39037.94;4957160;28;20075;-67
2023/11/24 05:17:43;;;;;;;26.42;22.67;;;;;;;-145.63;57.85;39022.28;4947230;29;20083;-67
2023/11/24 05:20:12;;;;;;;27.95;23.13;;;;;;;-145.63;57.57;39071.19;4947409;29;20344;-66
2023/11/24 05:22:39;;;;;;;26.35;23.45;;;;;;;-145.63;57.75;39053.59;4945963;29;20027;-67
2023/11/24 05:25:07;;;;;;;28.70;24.17;;;;;;;-145.63;58.26;39024.25;4946847;29;20102;-67
2023/11/24 05:27:32;;;;;;;27.77;24.05;;;;;;;-145.63;58.11;39045.75;4947114;29;20038;-68
2023/11/24 05:30:02;;;;;;;29.90;24.40;;;;;;;-145.63;57.31;39024.25;4947216;29;20051;-67
2023/11/24 05:32:29;;;;;;;;;;;;;;;-145.63;57.42;39098.56;4938078;29;20047;-67
2023/11/24 05:34:55;;;;;;;30.33;24.55;;;;;;;-145.63;57.29;39037.94;4946962;29;19962;-69
2023/11/24 05:37:21;;;;;;;28.48;25.17;;;;;;;-145.63;58.44;39028.16;4946956;29;20031;-68
2023/11/24 05:39:46;;;;;;;26.95;22.42;;;;;;;-145.63;57.43;39004.69;4947398;28;20091;-67
2023/11/24 05:42:13;;;;;;;31.00;24.60;;;;;;;-145.63;58.74;39012.50;4946903;29;20192;-67
2023/11/24 05:44:39;;;;;;;29.25;23.98;;;;;;;-145.63;58.72;39039.88;4947243;29;20071;-68
2023/11/24 05:47:05;;;;;;;29.02;24.65;;;;;;;-145.63;58.77;39047.72;4946796;29;20036;-68
2023/11/24 05:49:34;;;;;;;27.45;24.55;;;;;;;-145.63;57.68;39084.88;4952221;29;20399;-67
2023/11/24 05:52:00;;;;;;;29.92;24.98;;;;;;;-145.63;58.17;39020.34;4955657;29;20028;-66
2023/11/24 05:54:25;;;;;;;26.90;21.60;;;;;;;-145.63;57.88;39045.75;4953591;29;20039;-67
2023/11/24 05:56:51;;;;;;;28.33;23.15;;;;;;;-145.63;58.75;39055.53;4947781;29;20082;-65
2023/11/24 05:59:17;;;;;;;32.85;26.60;;;;;;;-145.63;58.74;39182.66;4960527;29;20255;-66
2023/11/24 06:01:43;;;;;;;30.48;25.48;;;;;;;-145.63;58.78;39063.34;4946921;29;20311;-67
2023/11/24 06:04:09;;;;;;;30.65;24.73;;;;;;;-145.63;58.15;39065.31;4946670;29;20059;-67
2023/11/24 06:06:36;;;;;;;29.27;24.00;;;;;;;-145.63;59.36;39028.16;4944825;29;20109;-66
2023/11/24 06:09:03;;;;;;;30.15;25.52;;;;;;;-145.63;58.66;39037.94;4946585;29;20031;-68
2023/11/24 06:11:28;;;;;;;29.88;26.30;;;;;;;-145.63;59.15;39032.06;4946623;29;20076;-68
2023/11/24 06:13:54;;;;;;;33.10;25.65;;;;;;;-145.63;58.28;39026.19;4946560;29;20244;-69
2023/11/24 06:16:20;;;;;;;32.33;26.33;;;;;;;-145.63;58.90;39012.50;4946581;29;20119;-68
2023/11/24 06:18:47;;;;;;;28.00;24.02;;;;;;;-145.63;58.12;39016.44;4949240;29;20023;-74
2023/11/24 06:21:13;;;;;;;28.90;23.85;;;;;;;-145.63;57.69;39020.34;4947419;29;20107;-69
2023/11/24 06:23:39;;;;;;;29.08;23.10;;;;;;;-145.63;57.63;39022.28;4945862;29;20027;-69
2023/11/24 06:26:08;;;;;;;30.92;24.45;;;;;;;-145.63;57.81;39012.50;4946260;29;20099;-69
2023/11/24 06:28:34;;;;;;;29.45;25.13;;;;;;;-145.63;57.76;38985.13;4946175;29;20024;-69
2023/11/24 06:31:00;;;;;;;28.58;23.65;;;;;;;-145.63;57.14;39008.59;4946714;29;20043;-69
2023/11/24 06:33:26;;;;;;;28.20;23.73;;;;;;;-145.63;57.33;39026.19;4945463;29;20036;-69
2023/11/24 06:35:53;;;;;;;27.52;22.27;;;;;;;-145.63;57.60;38987.09;4945457;29;20024;-69
2023/11/24 06:38:19;;;;;;;25.52;20.25;;;;;;;-145.63;58.48;38985.13;4946631;29;20035;-68
2023/11/24 06:40:44;;;;;;;26.55;21.70;;;;;;;-145.63;56.84;39020.34;4942946;29;20027;-70
2023/11/24 06:43:10;;;;;;;27.10;21.65;;;;;;;-145.63;58.02;38994.91;4946006;29;20215;-68
2023/11/24 06:45:36;;;;;;;29.50;23.67;;;;;;;-145.63;56.56;38969.50;4946313;29;20027;-68
2023/11/24 06:48:02;;;;;;;28.42;23.00;;;;;;;-145.63;57.45;39010.56;4945988;29;20028;-68
2023/11/24 06:50:28;;;;;;;28.33;23.40;;;;;;;-145.63;57.76;38973.41;4960158;29;20112;-70
2023/11/24 06:52:55;;;;;;;28.95;22.52;;;;;;;-145.63;57.05;38975.34;4945305;29;20375;-67
2023/11/24 06:55:21;;;;;;;29.67;23.92;;;;;;;-145.63;56.51;39018.38;4945913;29;20100;-67
2023/11/24 06:57:47;;;;;;;30.50;24.42;;;;;;;-145.63;56.03;39026.19;4945587;29;20027;-68
2023/11/24 07:00:17;;;;;;;29.88;22.42;;;;;;;-145.63;56.47;39028.16;4945612;29;20315;-68
2023/11/24 07:02:45;;;;;;;30.02;23.95;;;;;;;-145.63;56.82;38971.44;4945806;29;20541;-72
2023/11/24 07:05:11;;;;;;;32.10;23.85;;;;;;;-145.63;56.82;38996.88;4945891;29;20071;-72
2023/11/24 07:07:38;;;;;;;30.55;22.67;;;;;;;-145.63;56.75;38985.13;4945641;29;20032;-72
2023/11/24 07:10:07;;;;;;;30.25;21.83;;;;;;;-145.63;57.09;38969.50;4945711;29;20038;-71
2023/11/24 07:12:35;;;;;;;32.50;23.02;;;;;;;-145.63;57.45;38991.00;4949771;29;20087;-73
2023/11/24 07:15:03;;;;;;;31.63;24.15;;;;;;;-145.63;57.70;38991.00;4958024;28;20019;-72
2023/11/24 07:17:31;;;;;;;33.70;24.70;;;;;;;-145.63;57.28;38969.50;4926736;29;20380;-72
2023/11/24 07:19:57;;;;;;;31.42;23.20;;;;;;;-145.63;57.59;38903.00;4938462;29;20032;-76
2023/11/24 07:22:24;;;;;;;32.67;22.70;;;;;;;-145.63;57.73;38965.56;4945460;29;20082;-71
2023/11/24 07:24:51;;;;;;;30.55;22.92;;;;;;;-145.63;56.86;38991.00;4951887;29;20023;-70
2023/11/24 07:27:17;;;;;;;29.30;22.95;;;;;;;-145.63;56.69;38998.81;4945763;28;20039;-71
2023/11/24 07:29:43;;;;;;;32.22;23.15;;;;;;;-145.63;56.73;38996.88;4945436;29;20028;-73
2023/11/24 07:32:11;;;;;;;29.65;23.38;;;;;;;-145.63;56.78;39008.59;4930149;29;20216;-72
2023/11/24 07:34:37;;;;;;;28.15;22.20;;;;;;;-145.63;56.89;38959.72;4938738;29;20103;-75
2023/11/24 07:37:03;;;;;;;30.60;22.70;;;;;;;-145.63;56.31;39026.19;4944174;29;20024;-72
2023/11/24 07:39:30;;;;;;;29.58;22.73;;;;;;;-145.63;56.16;39008.59;4944048;29;20032;-72
2023/11/24 07:41:58;;;;;;;33.95;23.33;;;;;;;-145.63;56.05;39026.19;4945117;29;20038;-72
2023/11/24 07:44:29;;;;;;;31.08;24.08;;;;;;;-145.63;56.45;39018.38;4945107;29;20306;-73
2023/11/24 07:46:54;;;;;;;30.77;23.50;;;;;;;-145.63;55.18;38992.97;4944704;29;20028;-72
2023/11/24 07:49:20;;;;;;;30.45;22.60;;;;;;;-145.63;55.46;39002.72;4954117;29;20074;-73
2023/11/24 07:51:46;;;;;;;33.20;22.98;;;;;;;-145.63;55.59;39000.78;4953007;28;20039;-72
2023/11/24 07:54:12;;;;;;;29.15;24.55;;;;;;;-145.63;56.51;38961.66;4945142;29;20035;-70
2023/11/24 07:56:38;;;;;;;30.05;22.83;;;;;;;-145.63;56.22;38992.97;4976005;28;20035;-70
2023/11/24 07:59:04;;;;;;;32.25;23.35;;;;;;;-145.63;55.90;39010.56;4944724;29;20100;-74
2023/11/24 08:01:30;;;;;;;29.25;22.90;;;;;;;-145.63;55.72;39002.72;4945052;29;20035;-73
2023/11/24 08:03:56;;;;;;;26.83;21.90;;;;;;;-145.63;56.01;38977.31;4944939;29;20035;-74
2023/11/24 08:06:22;;;;;;;26.75;20.50;;;;;;;-145.63;55.28;39045.75;4945078;29;20231;-71
2023/11/24 08:08:47;;;;;;;28.70;21.10;;;;;;;-145.63;56.59;39018.38;4945118;29;20042;-71
2023/11/24 08:11:13;;;;;;;26.70;20.83;;;;;;;-145.63;56.19;39002.72;4943920;29;20031;-72
2023/11/24 08:13:39;;;;;;;28.05;20.90;;;;;;;-145.63;55.43;38989.03;4948344;29;20541;-71
2023/11/24 08:16:05;;;;;;;26.67;20.23;;;;;;;-145.63;56.16;38994.91;4944155;29;20035;-70
2023/11/24 08:18:31;;;;;;;27.73;22.58;;;;;;;-145.63;55.67;39016.44;4948444;29;20357;-73
2023/11/24 08:21:01;;;;;;;25.60;21.50;;;;;;;-145.63;55.09;38967.53;4964130;28;20031;-72
2023/11/24 08:23:27;;;;;;;27.02;21.15;;;;;;;-145.63;55.74;38969.50;4945385;29;20019;-72
2023/11/24 08:25:53;;;;;;;26.27;21.77;;;;;;;-145.63;55.92;39004.69;4944560;29;20148;-71
2023/11/24 08:28:19;;;;;;;27.45;20.70;;;;;;;-145.63;55.91;38991.00;4944621;29;20324;-71
2023/11/24 08:30:45;;;;;;;26.20;21.27;;;;;;;-145.63;54.47;39004.69;4944562;29;20027;-71
2023/11/24 08:33:11;;;;;;;26.42;20.25;;;;;;;-145.63;54.88;39008.59;4942864;29;20099;-70
2023/11/24 08:35:38;;;;;;;28.80;21.48;;;;;;;-145.63;55.74;38977.31;4944819;29;20028;-70
2023/11/24 08:38:04;;;;;;;27.10;20.60;;;;;;;-145.63;54.88;39010.56;4944860;29;20051;-70
2023/11/24 08:40:30;;;;;;;24.27;20.13;;;;;;;-145.63;54.91;39039.88;4944652;29;20024;-70
2023/11/24 08:42:57;;;;;;;24.85;19.73;;;;;;;-145.63;55.49;38992.97;4944841;29;20041;-70
2023/11/24 08:45:23;;;;;;;26.80;22.25;;;;;;;-145.63;55.67;39034.03;4943448;29;20207;-71
2023/11/24 08:47:49;;;;;;;28.63;21.58;;;;;;;-145.63;54.88;39028.16;4943483;29;20087;-71
2023/11/24 08:50:16;;;;;;;27.15;21.95;;;;;;;-145.63;54.70;39122.03;4947112;29;20041;-70
2023/11/24 08:52:47;;;;;;;25.95;20.23;;;;;;;-145.63;54.72;38998.81;4937965;29;20078;-70
2023/11/24 08:55:16;;;;;;;24.25;20.75;;;;;;;-145.63;54.05;39006.66;4944500;29;20034;-71
2023/11/24 08:57:44;;;;;;;25.20;18.95;;;;;;;-145.63;55.17;39014.47;4949361;28;20316;-72
2023/11/24 09:00:14;;;;;;;26.58;20.63;;;;;;;-145.63;54.97;39024.25;4955487;29;20036;-74
2023/11/24 09:02:41;;;;;;;24.70;20.15;;;;;;;-145.63;54.21;39041.84;4957158;29;20161;-70
2023/11/24 09:05:09;;;;;;;25.38;19.48;;;;;;;-145.63;54.60;39035.97;4956755;29;20058;-66
2023/11/24 09:07:36;;;;;;;25.27;19.58;;;;;;;-145.63;55.06;39002.72;4953830;29;20019;-70
2023/11/24 09:10:02;;;;;;;24.52;20.25;;;;;;;-145.63;54.59;39028.16;4956383;29;20019;-70
2023/11/24 09:12:30;;;;;;;28.23;20.85;;;;;;;-145.63;54.41;38879.53;4957377;29;20035;-69
2023/11/24 09:14:56;;;;;;;26.02;18.75;;;;;;;-145.63;54.36;39028.16;4956174;29;20055;-70
2023/11/24 09:17:21;;;;;;;23.75;19.40;;;;;;;-145.63;54.80;39034.03;4956613;29;20027;-71
2023/11/24 09:19:47;;;;;;;26.30;20.33;;;;;;;-145.63;53.74;39088.78;4954011;29;20043;-70
2023/11/24 09:22:14;;;;;;;24.17;19.13;;;;;;;-145.63;54.03;39051.63;4949574;29;20054;-68
2023/11/24 09:24:40;;;;;;;28.10;20.27;;;;;;;-145.63;54.68;39016.44;4945427;29;20330;-70
2023/11/24 09:27:06;;;;;;;25.55;20.55;;;;;;;-145.63;54.13;39039.88;4949163;29;20138;-70
2023/11/24 09:29:32;;;;;;;23.63;18.63;;;;;;;-145.63;54.51;39012.50;4957310;29;20058;-70
2023/11/24 09:31:58;;;;;;;24.85;18.98;;;;;;;-145.63;54.42;39012.50;4952070;29;20049;-69
2023/11/24 09:34:24;;;;;;;22.85;17.20;;;;;;;-145.63;54.59;38985.13;4950756;29;20125;-69
2023/11/24 09:36:50;;;;;;;24.83;19.55;;;;;;;-145.63;55.76;39000.78;4945768;29;20027;-70
2023/11/24 09:39:21;;;;;;;24.05;19.45;;;;;;;-145.63;55.13;38983.19;4956309;29;20038;-67
2023/11/24 09:41:51;;;;;;;21.88;16.98;;;;;;;-145.63;54.72;39004.69;4949314;29;20131;-68
2023/11/24 09:44:17;;;;;;;25.40;19.02;;;;;;;-145.63;54.84;38985.13;4957592;29;20050;-67
2023/11/24 09:46:43;;;;;;;23.65;19.55;;;;;;;-145.63;54.46;39006.66;4946737;29;20323;-68
2023/11/24 09:49:10;;;;;;;24.27;19.38;;;;;;;-145.63;54.74;39012.50;4946809;29;20035;-68
2023/11/24 09:51:39;;;;;;;21.67;18.15;;;;;;;-145.63;54.25;39026.19;4939115;29;20107;-67
2023/11/24 09:54:06;;;;;;;22.15;17.70;;;;;;;-145.63;53.13;38991.00;4946908;29;20032;-68
2023/11/24 09:56:32;;;;;;;24.05;18.83;;;;;;;-145.63;53.90;38991.00;4946906;29;20211;-68
2023/11/24 09:58:58;;;;;;;21.92;18.67;;;;;;;-145.63;54.23;39008.59;4946868;29;20169;-68
2023/11/24 10:01:26;;;;;;;21.00;17.65;;;;;;;-145.63;53.57;38998.81;4946651;29;20136;-68
2023/11/24 10:03:53;;;;;;;23.38;18.13;;;;;;;-145.63;53.17;39035.97;4933495;29;20031;-68
2023/11/24 10:06:19;;;;;;;20.40;16.02;;;;;;;-145.63;53.92;38930.38;4928368;29;20035;-67
2023/11/24 10:08:46;;;;;;;20.75;17.00;;;;;;;-145.63;53.82;38983.19;4946481;29;20039;-69
2023/11/24 10:11:27;;;;;;;24.13;16.48;;;;;;;-145.63;54.63;38979.28;4946429;29;20028;-69
2023/11/24 10:13:54;;;;;;;22.30;17.17;;;;;;;-145.63;54.23;39035.97;4946621;29;20035;-68
2023/11/24 10:16:21;;;;;;;20.85;16.70;;;;;;;-145.63;54.70;39020.34;4938206;29;20028;-68
2023/11/24 10:18:47;;;;;;;20.95;17.25;;;;;;;-145.63;54.76;39008.59;4946543;29;20052;-71
2023/11/24 10:21:13;;;;;;;21.70;16.83;;;;;;;-145.63;54.41;39008.59;4946387;29;20243;-68
2023/11/24 10:23:39;;;;;;;22.65;18.38;;;;;;;-145.63;54.72;39057.50;4946351;29;20027;-68
2023/11/24 10:26:15;;;;;;;25.10;18.50;;;;;;;-145.63;54.70;39092.69;4946502;29;20054;-68
2023/11/24 10:28:44;;;;;;;20.30;17.13;;;;;;;-145.63;54.06;39067.28;4946098;29;20382;-67
2023/11/24 10:31:14;;;;;;;22.73;16.58;;;;;;;-145.63;54.62;39079.00;4946175;29;20051;-67
2023/11/24 10:33:40;;;;;;;21.17;16.85;;;;;;;-145.63;54.05;39014.47;4946184;29;20027;-67
2023/11/24 10:36:06;;;;;;;21.67;15.80;;;;;;;-145.63;54.72;39022.28;4946316;29;20058;-68
2023/11/24 10:38:33;;;;;;;20.65;17.20;;;;;;;-145.63;54.53;39063.34;4946489;29;20020;-67
2023/11/24 10:41:01;;;;;;;22.55;17.77;;;;;;;-145.63;53.79;39020.34;4945976;29;20033;-68
2023/11/24 10:43:31;;;;;;;21.98;17.88;;;;;;;-145.63;53.87;39047.72;4929207;29;20023;-67
2023/11/24 10:46:01;;;;;;;21.27;17.63;;;;;;;-145.63;53.55;39000.78;4945958;29;20063;-68
2023/11/24 10:48:34;;;;;;;19.90;15.82;;;;;;;-145.63;53.48;38991.00;4946620;29;20220;-67
2023/11/24 10:51:10;;;;;;;20.58;17.42;;;;;;;-145.63;54.21;38998.81;4940580;29;20067;-68
2023/11/24 10:53:44;;;;;;;23.02;18.77;;;;;;;-145.63;53.86;38989.03;4945051;29;20095;-68
2023/11/24 10:56:13;;;;;;;22.45;16.95;;;;;;;-145.63;53.49;39071.19;4944553;29;20027;-68
2023/11/24 10:58:39;;;;;;;20.70;16.95;;;;;;;-145.63;53.10;39055.53;4945222;29;20315;-67